Ciampino, Italy

1:03 PM CET on February 20, 2017 (GMT +0100)
Ciampino | | Change Station

Elev 348 ft 41.81 °N, 12.60 °E | Updated 15 seconds ago

Mostly Cloudy
Mostly Cloudy
59.5 °F
Feels Like 59.5 °F
N
2.2
Wind Variable Wind from West
Gusts 5.4 mph

Today
High -- | Low -- °F
--% Chance of Precip.
Yesterday
High -- | Low -- °F
Precip. -- in
Pressure 30.18 in
Visibility 6.2 miles
Clouds Few 3000 ft
Mostly Cloudy 7500 ft
Dew Point 31 °F
Humidity 34%
Rainfall 0.00 in
Snow Depth Not available.
6:58 AM 5:49 PM
Waning Crescent, 34% visible
METAR LIRA 201150Z 32005KT 260V350 9999 FEW030 BKN075 13/02 Q1022
Pressure 30.18 in
Visibility 6.2 miles
Clouds Few 3000 ft
Mostly Cloudy 7500 ft
Dew Point 31 °F
Humidity 34%
Rainfall 0.00 in
Snow Depth Not available.
6:58 AM 5:49 PM
Waning Crescent, 34% visible
METAR LIRA 201150Z 32005KT 260V350 9999 FEW030 BKN075 13/02 Q1022

Get Your Daily Forecast Email!

Thanks for signing up!

Be on the lookout for a verification email in your inbox.

You'll start receiving the daily forecast at 8 AM.

×

10-Day Weather Forecast

×

Almanac

Astronomy

Feb. 20, 2017 Rise Set
Actual Time
Civil Twilight
Nautical Twilight
Astronomical Twilight
Moon
Length of Visible Light
Length of Day
Tomorrow will be .
, % of the Moon is Illuminated

Today's Extremes

Country Highs Country Lows

Community

WunderPhotos

Upload Photos

1,962,540 photos uploaded!

WunderBlog® & News

Nearby

Air Quality

  Air Quality AQ Index Pollutant
Not available.

Snow Depth

Station Depth Elevation

Earthquake Activity

City Distance Mag. Time & Date
Minimum magnitude displayed is 2.5.

Coastal Water Temperatures

Place Temperature

Stations

Nearby Weather Stations

Station Location Temp. Windchill Dew Point Humidity Wind Precip. Elev Updated Type